OIIK  Qazvin Airport

Add Bookmark

Qazvin, Iran

Status
Operational
Latitude Longitude
36° 14' 24" N 50° 2' 49" E
36.240101 50.047100
Local (DST + 5) UTC (GMT + 4)
Aug 30, 2014 04:39 Aug 30, 2014 00:09
Sunrise-Sunset Local UTC
Begin Civil Twilight 06:12 01:42
Sunrise 06:38 02:08
Sunset 07:42 15:12
End Civil Twilight 08:08 15:38

Current Weather

METAR Observed VFR
OIIK 292300Z 00000KT CAVOK 17/07 Q1015 Fri, Aug 29, 2014 @ 23:00 UTC
(1 Hour, 9 Minutes ago)
Visual Flight Rules
Wind Visibility Clouds Conditions
Calm 10 km or more
  • Clear skies
  • No significant weather
Temperatures Readings Precipitation
Current Temp 17°C (63°F)
Dewpoint 7°C (45°F)
Humidity 52%
Altimeter 29.97"Hg
Sea Level Pressure 1015mb
Field Elevation 4192.91'
None Recorded

Additional weather within a 92.6km radius of OIIK

Map ICAO Location
OIIP 87km S (126°)

24 Hour Weather History

Loading
-

24 Hour Weather Graphs

Loading
-

CheckWX.com is intended as a tool to help pilots better visualize weather data. It is not intended as a substitute for an official weather briefing obtained from a Flight Service Station. CheckWX.com does not meet the FAA requirements for an official pre-flight weather briefing. Therefore, it's important that pilots still call and obtain an official FSS pre-flight weather briefing.